Time;durP1;ratioP1;P1;durP2;ratioP2;P2;SDS_P1;SDS_P2;PMS_P1;PMS_P2;Temp;Humidity;BMP_temperature;BMP_pressure;BME280_temperature;BME280_humidity;BME280_pressure;Samples;Min_cycle;Max_cycle;Signal;HPM_P1;HPM_P2
2022/05/09 04:03:34;;;;;;;5.30;4.82;;;10.10;99.90;;;;;;5953446;22;20357;-72
2022/05/09 04:06:00;;;;;;;6.90;6.10;;;10.00;99.90;;;;;;5019034;28;20289;-71
2022/05/09 04:08:26;;;;;;;5.80;5.20;;;10.10;99.90;;;;;;5033747;28;20170;-71
2022/05/09 04:10:53;;;;;;;6.30;5.70;;;10.00;99.90;;;;;;5015936;28;20315;-73
2022/05/09 04:13:19;;;;;;;9.00;6.25;;;10.00;99.90;;;;;;5032795;28;20221;-72
2022/05/09 04:18:45;;;;;;;9.00;7.22;;;10.00;99.90;;;;;;5033692;28;20208;-72
2022/05/09 04:21:13;;;;;;;6.47;5.88;;;10.00;99.90;;;;;;5023517;28;20178;-72
2022/05/09 04:23:38;;;;;;;6.13;5.53;;;10.00;99.90;;;;;;4998113;28;20589;-72
2022/05/09 04:26:05;;;;;;;6.30;5.70;;;10.10;99.90;;;;;;5033215;28;20240;-72
2022/05/09 04:28:31;;;;;;;10.32;6.28;;;10.10;99.90;;;;;;5032407;28;20182;-72
2022/05/09 04:30:58;;;;;;;7.78;6.22;;;10.10;99.90;;;;;;5033191;28;20220;-72
2022/05/09 04:33:24;;;;;;;7.55;6.78;;;10.20;99.90;;;;;;5031700;28;20193;-73
2022/05/09 04:35:50;;;;;;;11.63;6.73;;;10.30;99.90;;;;;;5024141;28;20174;-73
2022/05/09 04:38:21;;;;;;;11.17;7.87;;;10.60;99.90;;;;;;5013599;28;20163;-72
2022/05/09 04:40:52;;;;;;;9.32;7.70;;;10.80;99.90;;;;;;5013927;28;20172;-72
2022/05/09 04:43:23;;;;;;;9.70;7.03;;;11.00;99.90;;;;;;5013064;28;20649;-72
2022/05/09 04:45:50;;;;;;;10.38;7.43;;;11.20;99.90;;;;;;5013360;28;20250;-72
2022/05/09 04:48:17;;;;;;;9.60;7.80;;;11.40;99.90;;;;;;5013387;28;20177;-72
2022/05/09 04:50:43;;;;;;;10.53;8.77;;;11.60;99.90;;;;;;5022877;28;20855;-72
2022/05/09 04:53:09;;;;;;;9.17;7.50;;;11.80;99.90;;;;;;5032332;28;20491;-72
2022/05/09 04:55:35;;;;;;;7.47;6.80;;;12.10;99.90;;;;;;5033341;28;20494;-72
2022/05/09 04:58:00;;;;;;;12.30;7.40;;;12.30;99.90;;;;;;5033018;28;20406;-72
2022/05/09 05:00:26;;;;;;;7.47;6.53;;;12.30;99.90;;;;;;5033023;28;20176;-72
2022/05/09 05:02:54;;;;;;;6.70;6.10;;;12.40;99.90;;;;;;5032262;28;20176;-72
2022/05/09 05:05:20;;;;;;;7.53;6.37;;;12.60;99.90;;;;;;5023790;28;20463;-72
2022/05/09 05:07:45;;;;;;;7.33;6.67;;;12.70;99.90;;;;;;5013330;28;20376;-72
2022/05/09 05:10:12;;;;;;;7.10;6.40;;;12.90;99.90;;;;;;5013147;28;20458;-72
2022/05/09 05:12:38;;;;;;;6.83;6.23;;;13.00;99.90;;;;;;5012734;28;20726;-72
2022/05/09 05:15:04;;;;;;;6.00;5.30;;;13.10;99.90;;;;;;5012436;28;20502;-72
2022/05/09 05:17:30;;;;;;;6.30;5.43;;;13.10;99.90;;;;;;5013075;28;20419;-72
2022/05/09 05:19:55;;;;;;;9.60;7.60;;;13.30;99.90;;;;;;5016486;28;20432;-72
2022/05/09 05:22:21;;;;;;;6.17;5.60;;;13.50;99.90;;;;;;5012022;28;20236;-72
2022/05/09 05:24:51;;;;;;;5.37;4.93;;;13.70;99.90;;;;;;5012880;28;20522;-65
2022/05/09 05:27:17;;;;;;;5.70;5.20;;;13.90;99.90;;;;;;5012614;28;20787;-75
2022/05/09 05:29:42;;;;;;;6.57;5.97;;;13.90;99.90;;;;;;5012734;28;20565;-74
2022/05/09 05:32:23;;;;;;;5.23;4.73;;;13.90;99.90;;;;;;5012110;28;20927;-76
2022/05/09 05:34:49;;;;;;;6.63;5.73;;;13.90;99.90;;;;;;5015098;28;20202;-75
2022/05/09 05:37:16;;;;;;;5.70;5.20;;;14.10;99.90;;;;;;4995022;28;20421;-77
2022/05/09 05:39:43;;;;;;;5.97;5.37;;;14.10;99.90;;;;;;5013272;28;20403;-74
2022/05/09 05:42:09;;;;;;;6.67;5.90;;;14.20;99.90;;;;;;5015969;28;20453;-73
2022/05/09 05:44:37;;;;;;;6.70;6.10;;;14.20;99.90;;;;;;5016119;28;20451;-75
2022/05/09 05:47:11;;;;;;;6.20;5.70;;;14.30;99.90;;;;;;4998696;28;20492;-74
2022/05/09 05:49:37;;;;;;;5.67;5.20;;;14.40;99.90;;;;;;5017077;28;20466;-73
2022/05/09 05:52:04;;;;;;;6.27;5.73;;;14.50;99.90;;;;;;5015936;28;20416;-74
2022/05/09 05:54:36;;;;;;;6.43;5.83;;;14.40;99.90;;;;;;5015816;28;20802;-74
2022/05/09 05:57:04;;;;;;;6.50;5.93;;;14.50;99.90;;;;;;5016083;28;20420;-72
2022/05/09 05:59:30;;;;;;;11.30;6.33;;;14.50;99.90;;;;;;5016096;28;20420;-75
2022/05/09 06:01:56;;;;;;;6.70;6.23;;;14.60;99.90;;;;;;5015683;28;20429;-74
2022/05/09 06:04:22;;;;;;;6.27;5.10;;;14.70;99.90;;;;;;5019890;28;20457;-75
2022/05/09 06:06:49;;;;;;;7.40;6.53;;;14.80;99.90;;;;;;5015744;28;20644;-78
2022/05/09 06:09:15;;;;;;;5.57;4.93;;;14.80;99.90;;;;;;5015326;28;20422;-76
2022/05/09 06:11:42;;;;;;;7.87;7.07;;;15.00;99.90;;;;;;5015816;28;20402;-76
2022/05/09 06:14:10;;;;;;;7.23;6.33;;;15.20;99.90;;;;;;4999461;28;20457;-75
2022/05/09 06:16:37;;;;;;;7.37;6.77;;;15.30;99.90;;;;;;5015251;28;20431;-66
2022/05/09 06:19:04;;;;;;;6.27;5.67;;;15.40;99.90;;;;;;5018568;28;20834;-66
2022/05/09 06:21:33;;;;;;;5.27;4.80;;;15.40;99.90;;;;;;5016199;28;20425;-66
2022/05/09 06:24:05;;;;;;;7.70;6.17;;;15.50;99.90;;;;;;5011633;28;20448;-64
2022/05/09 06:26:32;;;;;;;6.50;5.90;;;15.50;99.90;;;;;;5013864;28;20424;-64
2022/05/09 06:28:59;;;;;;;5.67;5.13;;;15.60;99.90;;;;;;5024380;28;20428;-66
2022/05/09 06:31:24;;;;;;;7.93;6.40;;;15.70;99.90;;;;;;4996493;28;20411;-66
2022/05/09 06:33:50;;;;;;;7.87;5.60;;;15.70;99.90;;;;;;5014013;28;20433;-67
2022/05/09 06:36:16;;;;;;;7.10;6.17;;;15.80;99.90;;;;;;5014841;28;20457;-65
2022/05/09 06:38:41;;;;;;;6.20;5.70;;;15.90;99.90;;;;;;5014932;28;20228;-64
2022/05/09 06:41:10;;;;;;;7.20;6.50;;;16.00;99.90;;;;;;5014992;28;20182;-66
2022/05/09 06:43:36;;;;;;;6.33;5.73;;;16.10;99.90;;;;;;5014508;28;20590;-66
2022/05/09 06:46:02;;;;;;;7.47;6.07;;;16.30;99.90;;;;;;5015639;28;20512;-67
2022/05/09 06:48:28;;;;;;;6.33;5.77;;;16.30;99.90;;;;;;5013488;28;21006;-64
2022/05/09 06:50:54;;;;;;;7.13;5.53;;;16.40;99.90;;;;;;5013918;28;20392;-64
2022/05/09 06:53:20;;;;;;;6.97;6.27;;;16.50;99.90;;;;;;5000136;28;20455;-63
2022/05/09 06:55:47;;;;;;;6.93;6.30;;;16.60;99.90;;;;;;5025714;28;20497;-65
2022/05/09 06:58:21;;;;;;;6.60;6.00;;;16.60;99.90;;;;;;5014115;28;20936;-65
2022/05/09 07:00:47;;;;;;;6.97;5.90;;;16.70;99.90;;;;;;5014337;28;20426;-63
2022/05/09 07:03:13;;;;;;;6.83;5.60;;;16.80;99.90;;;;;;5014313;28;20442;-65
2022/05/09 07:05:44;;;;;;;6.50;5.80;;;16.80;99.90;;;;;;5013962;28;20498;-64
2022/05/09 07:08:10;;;;;;;7.33;6.50;;;16.80;99.90;;;;;;5019336;28;20775;-64
2022/05/09 07:10:36;;;;;;;6.37;5.67;;;16.80;99.90;;;;;;5026631;28;20411;-63
2022/05/09 07:13:04;;;;;;;7.07;5.87;;;16.90;99.90;;;;;;5013452;28;20405;-66
2022/05/09 07:15:31;;;;;;;7.67;5.67;;;17.10;99.90;;;;;;5014183;28;20925;-63
2022/05/09 07:17:58;;;;;;;6.20;5.70;;;17.20;99.90;;;;;;5013568;28;20429;-65
2022/05/09 07:20:26;;;;;;;6.07;5.47;;;17.30;99.90;;;;;;5013879;28;20988;-64
2022/05/09 07:22:54;;;;;;;6.60;5.47;;;17.40;99.90;;;;;;5013574;28;20409;-66
2022/05/09 07:25:23;;;;;;;5.30;4.80;;;17.60;99.90;;;;;;5013704;28;20945;-66
2022/05/09 07:27:48;;;;;;;5.47;4.97;;;17.80;99.90;;;;;;5014073;28;20478;-63
2022/05/09 07:30:20;;;;;;;6.60;5.87;;;18.10;99.90;;;;;;5013612;28;20410;-64
2022/05/09 07:32:46;;;;;;;5.63;5.10;;;18.40;99.90;;;;;;5013425;28;20589;-63
2022/05/09 07:35:14;;;;;;;5.77;5.27;;;18.70;99.90;;;;;;5014133;28;20440;-63
2022/05/09 07:37:40;;;;;;;6.60;5.83;;;19.10;99.90;;;;;;5031067;28;20387;-65
2022/05/09 07:40:10;;;;;;;5.73;5.13;;;19.90;99.90;;;;;;5013612;28;20754;-65
2022/05/09 07:42:36;;;;;;;6.50;5.83;;;21.00;99.90;;;;;;5013458;28;20858;-65
2022/05/09 07:45:04;;;;;;;5.23;4.80;;;22.40;98.70;;;;;;5013704;28;20797;-65
2022/05/09 07:47:30;;;;;;;6.17;5.53;;;23.70;97.10;;;;;;5013293;28;20902;-67
2022/05/09 07:49:56;;;;;;;5.60;5.13;;;24.10;95.80;;;;;;5013642;28;20453;-65
2022/05/09 07:52:22;;;;;;;6.90;6.30;;;25.20;94.20;;;;;;5027247;28;20197;-65
2022/05/09 07:54:48;;;;;;;6.97;6.37;;;26.40;92.00;;;;;;5015415;28;20506;-65
2022/05/09 07:57:14;;;;;;;6.13;5.73;;;27.40;89.80;;;;;;5012412;28;20179;-66
2022/05/09 07:59:41;;;;;;;6.93;6.10;;;27.90;86.20;;;;;;5014579;28;20426;-65
2022/05/09 08:02:06;;;;;;;6.43;5.93;;;28.50;85.80;;;;;;5013020;28;20404;-66
2022/05/09 08:04:33;;;;;;;6.00;5.50;;;29.10;83.50;;;;;;5012033;28;20544;-65
2022/05/09 08:06:58;;;;;;;5.90;5.50;;;29.30;79.80;;;;;;5013353;28;20193;-65
2022/05/09 08:09:24;;;;;;;6.13;5.73;;;29.40;78.40;;;;;;5012216;28;20818;-67
2022/05/09 08:11:50;;;;;;;6.67;6.17;;;29.50;79.00;;;;;;5012886;28;20266;-68
2022/05/09 08:14:16;;;;;;;7.90;6.00;;;29.90;78.20;;;;;;5012032;28;20668;-66
2022/05/09 08:16:43;;;;;;;7.10;6.50;;;30.40;76.70;;;;;;5012430;28;20393;-68
2022/05/09 08:19:11;;;;;;;5.93;5.53;;;30.50;72.90;;;;;;5013171;28;20167;-68
2022/05/09 08:21:37;;;;;;;5.37;4.90;;;30.50;73.50;;;;;;5012032;28;20422;-68
2022/05/09 08:24:10;;;;;;;5.97;5.57;;;30.80;71.60;;;;;;5011989;28;20465;-69
2022/05/09 08:26:36;;;;;;;6.33;5.83;;;31.20;71.40;;;;;;5024681;28;20523;-67
2022/05/09 08:29:02;;;;;;;6.67;6.17;;;31.60;69.90;;;;;;5030094;28;20588;-67
2022/05/09 08:31:28;;;;;;;6.10;5.70;;;31.80;68.10;;;;;;5026291;28;20425;-65
2022/05/09 08:33:56;;;;;;;6.27;5.87;;;32.00;67.40;;;;;;5022559;28;20210;-69
2022/05/09 08:39:08;;;;;;;6.37;5.87;;;32.10;66.80;;;;;;5026261;28;20589;-67
2022/05/09 08:42:00;;;;;;;6.23;5.73;;;32.30;66.50;;;;;;5026364;28;20421;-65
2022/05/09 08:45:07;;;;;;;7.63;7.07;;;32.50;64.80;;;;;;5025933;28;20453;-67
2022/05/09 08:47:57;;;;;;;5.63;5.33;;;32.30;64.50;;;;;;5024505;28;20422;-68
2022/05/09 08:50:27;;;;;;;4.97;4.67;;;32.30;64.60;;;;;;5026096;28;20452;-68
2022/05/09 08:53:06;;;;;;;5.70;5.30;;;32.60;64.00;;;;;;5008560;28;20433;-67
2022/05/09 08:55:36;;;;;;;6.03;5.63;;;32.80;63.20;;;;;;5009172;28;20508;-66
2022/05/09 08:58:27;;;;;;;6.53;6.03;;;32.90;61.50;;;;;;5026559;28;20432;-64
2022/05/09 09:00:55;;;;;;;5.60;5.20;;;32.80;61.20;;;;;;5025124;28;20453;-68
2022/05/09 09:04:00;;;;;;;5.93;5.53;;;32.80;61.80;;;;;;5025663;28;20520;-66
2022/05/09 09:06:50;;;;;;;5.70;5.20;;;32.90;60.90;;;;;;5025519;28;20436;-66
2022/05/09 09:09:39;;;;;;;6.03;5.53;;;33.30;60.30;;;;;;5026047;28;20574;-66
2022/05/09 09:12:20;;;;;;;6.33;5.80;;;33.30;59.50;;;;;;5030761;28;20429;-67
2022/05/09 09:15:12;;;;;;;6.13;5.73;;;33.40;59.50;;;;;;5027808;28;20465;-67
2022/05/09 09:17:47;;;;;;;5.60;5.20;;;33.50;59.40;;;;;;5029984;28;20414;-66
2022/05/09 09:21:00;;;;;;;5.10;4.60;;;33.40;59.50;;;;;;5029034;28;20505;-68
2022/05/09 09:23:35;;;;;;;6.53;5.93;;;34.10;58.60;;;;;;4918737;28;20450;-66
2022/05/09 09:26:42;;;;;;;6.00;5.60;;;34.30;56.90;;;;;;5022729;28;20699;-67
2022/05/09 09:29:19;;;;;;;6.13;5.53;;;34.10;58.90;;;;;;5021189;28;20420;-69
2022/05/09 09:31:52;;;;;;;7.00;6.50;;;33.70;58.80;;;;;;5026975;28;20429;-65
2022/05/09 09:34:28;;;;;;;5.60;5.30;;;33.50;58.60;;;;;;5028491;28;20429;-66
2022/05/09 09:37:06;;;;;;;6.03;5.63;;;33.90;58.50;;;;;;5029685;28;20492;-65
2022/05/09 09:39:32;;;;;;;5.80;5.40;;;33.80;58.00;;;;;;5012051;28;20664;-66
2022/05/09 09:41:57;;;;;;;6.07;5.67;;;33.60;58.10;;;;;;5029137;28;20556;-66
2022/05/09 09:44:25;;;;;;;5.53;5.17;;;33.10;59.20;;;;;;5029358;28;20195;-66
2022/05/09 09:47:20;;;;;;;5.43;5.03;;;33.20;58.90;;;;;;5029053;28;20190;-67
2022/05/09 09:49:48;;;;;;;6.27;5.80;;;33.30;59.20;;;;;;5028086;28;20422;-68
2022/05/09 09:52:14;;;;;;;5.37;5.07;;;33.90;58.40;;;;;;5029190;28;20574;-67
2022/05/09 09:54:46;;;;;;;5.23;4.93;;;34.20;57.10;;;;;;5027849;28;20464;-69
2022/05/09 09:57:21;;;;;;;5.33;4.93;;;34.20;55.70;;;;;;5025621;28;20163;-70
2022/05/09 09:59:48;;;;;;;4.80;4.50;;;34.60;54.90;;;;;;5029355;28;20429;-69
2022/05/09 10:02:24;;;;;;;4.83;4.43;;;34.60;54.20;;;;;;5028744;28;20418;-68
2022/05/09 10:04:50;;;;;;;4.53;4.23;;;34.40;54.60;;;;;;5029144;28;20437;-69
2022/05/09 10:07:34;;;;;;;4.67;4.37;;;34.50;54.80;;;;;;5011521;28;20437;-68
2022/05/09 10:10:17;;;;;;;5.13;4.73;;;34.60;54.40;;;;;;5028986;28;20505;-67
2022/05/09 10:12:48;;;;;;;5.60;5.10;;;34.80;54.00;;;;;;5026594;28;20433;-68
2022/05/09 10:15:34;;;;;;;5.33;4.93;;;34.20;54.10;;;;;;5028511;28;20630;-67
2022/05/09 10:18:18;;;;;;;5.07;4.67;;;34.20;55.30;;;;;;5028857;28;20476;-67
2022/05/09 10:20:44;;;;;;;4.90;4.60;;;34.10;54.80;;;;;;5028729;28;20515;-68
2022/05/09 10:26:30;;;;;;;5.13;4.83;;;34.10;54.70;;;;;;5031357;28;20672;-68
2022/05/09 10:28:58;;;;;;;5.53;5.13;;;34.40;53.60;;;;;;5028415;28;20672;-69
2022/05/09 10:31:37;;;;;;;5.47;5.07;;;33.80;53.60;;;;;;5028558;28;20456;-69
2022/05/09 10:34:26;;;;;;;9.70;4.87;;;33.20;54.00;;;;;;5027858;28;20445;-69
2022/05/09 10:37:02;;;;;;;5.10;4.70;;;33.10;54.00;;;;;;5028742;28;20429;-68
2022/05/09 10:39:36;;;;;;;4.27;3.97;;;32.80;54.20;;;;;;5028247;28;20418;-67
2022/05/09 10:42:10;;;;;;;4.67;4.27;;;32.70;54.80;;;;;;5018717;28;20554;-68
2022/05/09 10:44:50;;;;;;;5.43;5.03;;;32.60;54.40;;;;;;5028428;28;20678;-69
2022/05/09 10:47:30;;;;;;;4.53;4.23;;;32.70;55.00;;;;;;5044649;28;20664;-69
2022/05/09 10:50:09;;;;;;;4.90;4.60;;;32.60;54.70;;;;;;5028369;28;20534;-69
2022/05/09 10:53:02;;;;;;;4.40;4.10;;;32.60;55.60;;;;;;5027740;28;20503;-68
2022/05/09 10:55:34;;;;;;;4.93;4.63;;;32.80;54.40;;;;;;5028181;28;20465;-71
2022/05/09 10:58:05;;;;;;;5.30;4.80;;;32.90;53.90;;;;;;5029816;28;20426;-70
2022/05/09 11:00:35;;;;;;;4.60;4.30;;;32.60;53.50;;;;;;5030649;28;20449;-70
2022/05/09 11:03:10;;;;;;;4.50;4.10;;;32.50;54.30;;;;;;5027687;28;20413;-68
2022/05/09 11:06:12;;;;;;;4.57;4.23;;;32.30;54.20;;;;;;5027801;28;20412;-69
2022/05/09 11:08:46;;;;;;;5.10;4.70;;;31.80;54.10;;;;;;5028183;28;20383;-69
2022/05/09 11:11:28;;;;;;;4.67;4.37;;;30.90;54.50;;;;;;5031649;28;20430;-69
2022/05/09 11:14:22;;;;;;;5.27;4.83;;;29.90;55.70;;;;;;5026870;28;20449;-66
2022/05/09 11:17:21;;;;;;;4.73;4.33;;;28.70;58.40;;;;;;5023086;28;20453;-67
2022/05/09 11:19:47;;;;;;;4.70;4.30;;;27.70;58.30;;;;;;5027604;28;20577;-69
2022/05/09 11:22:39;;;;;;;4.17;3.90;;;26.90;59.50;;;;;;5026910;28;20396;-70
2022/05/09 11:25:17;;;;;;;4.63;4.23;;;26.30;60.70;;;;;;5011446;28;20205;-69
2022/05/09 11:28:00;;;;;;;4.67;4.37;;;26.00;61.50;;;;;;5027566;28;20431;-69
2022/05/09 11:30:37;;;;;;;4.20;3.90;;;25.80;61.10;;;;;;5027581;28;20484;-69
2022/05/09 11:33:28;;;;;;;3.97;3.67;;;25.40;62.90;;;;;;5026669;28;20430;-69
2022/05/09 11:36:00;;;;;;;4.03;3.73;;;25.10;64.50;;;;;;5027235;28;20468;-70
2022/05/09 11:38:34;;;;;;;4.60;4.30;;;24.80;66.10;;;;;;5034171;28;20414;-70
2022/05/09 11:41:27;;;;;;;3.40;3.20;;;24.60;66.00;;;;;;5027283;28;20498;-70
2022/05/09 11:44:11;;;;;;;3.80;3.50;;;24.30;66.60;;;;;;4989251;28;20543;-70
2022/05/09 11:46:46;;;;;;;3.80;3.50;;;24.00;66.60;;;;;;5026978;28;20380;-69
2022/05/09 11:49:36;;;;;;;4.33;3.93;;;23.80;67.70;;;;;;5025341;28;20423;-69
2022/05/09 11:52:20;;;;;;;3.60;3.07;;;23.60;67.10;;;;;;5026331;28;20387;-70
2022/05/09 11:54:48;;;;;;;3.17;3.00;;;23.60;67.50;;;;;;5023566;28;20664;-69
2022/05/09 11:57:40;;;;;;;4.70;3.93;;;23.80;69.00;;;;;;5027089;28;20430;-70
2022/05/09 12:00:26;;;;;;;5.33;4.37;;;24.00;68.90;;;;;;5026854;28;20508;-69
2022/05/09 12:02:54;;;;;;;4.00;3.70;;;24.20;67.90;;;;;;5011144;28;20442;-69
2022/05/09 12:05:24;;;;;;;4.07;3.77;;;24.30;67.30;;;;;;5042881;28;20449;-69
2022/05/09 12:08:10;;;;;;;3.83;3.53;;;24.20;68.50;;;;;;5027086;28;20666;-68
2022/05/09 12:10:38;;;;;;;3.90;3.60;;;24.20;69.50;;;;;;5012979;28;20497;-68
2022/05/09 12:13:07;;;;;;;4.57;3.83;;;24.20;69.30;;;;;;5026106;28;20421;-68
2022/05/09 12:15:33;;;;;;;5.33;4.93;;;24.20;67.70;;;;;;5026298;28;20439;-68
2022/05/09 12:18:00;;;;;;;7.23;4.20;;;24.10;68.00;;;;;;5031549;28;20399;-69
2022/05/09 12:20:30;;;;;;;4.97;4.63;;;24.00;68.20;;;;;;5046592;28;20463;-69
2022/05/09 12:23:01;;;;;;;3.50;3.30;;;24.10;68.50;;;;;;5046730;28;20409;-70
2022/05/09 12:25:33;;;;;;;4.33;3.93;;;24.10;68.90;;;;;;5030498;28;20538;-67
2022/05/09 12:28:07;;;;;;;4.40;4.00;;;24.10;68.60;;;;;;5027293;28;20429;-73
2022/05/09 12:30:49;;;;;;;4.40;4.10;;;24.00;67.70;;;;;;5027276;28;20556;-69
2022/05/09 12:33:24;;;;;;;3.87;3.57;;;24.00;69.10;;;;;;5026921;28;20448;-71
2022/05/09 12:35:53;;;;;;;8.20;3.90;;;23.90;68.80;;;;;;5026698;28;20452;-69
2022/05/09 12:38:33;;;;;;;5.10;4.40;;;24.00;69.80;;;;;;5026925;28;20598;-70
2022/05/09 12:41:14;;;;;;;4.10;3.80;;;24.00;68.10;;;;;;5026705;28;20497;-69
2022/05/09 12:43:44;;;;;;;4.20;3.90;;;23.90;68.20;;;;;;5026207;28;20408;-71
2022/05/09 12:46:19;;;;;;;4.40;4.10;;;23.90;67.30;;;;;;5026841;28;20402;-69
2022/05/09 12:48:45;;;;;;;4.77;4.40;;;23.90;68.30;;;;;;5027540;28;20410;-71
2022/05/09 12:51:13;;;;;;;4.10;3.70;;;24.00;69.00;;;;;;5013536;28;20400;-68
2022/05/09 12:53:40;;;;;;;4.97;4.57;;;24.20;67.60;;;;;;5030267;28;20198;-68
2022/05/09 12:56:17;;;;;;;3.50;3.20;;;24.20;67.60;;;;;;5045173;28;20445;-69
2022/05/09 12:58:45;;;;;;;4.00;3.70;;;24.20;67.50;;;;;;5050372;28;20408;-70
2022/05/09 13:01:19;;;;;;;4.33;3.50;;;24.10;67.90;;;;;;5023099;28;20472;-69
2022/05/09 13:03:56;;;;;;;4.27;3.90;;;24.10;68.90;;;;;;5029968;28;20438;-70
2022/05/09 13:06:28;;;;;;;5.17;4.60;;;24.00;69.20;;;;;;5030375;28;20436;-69
2022/05/09 13:08:54;;;;;;;3.50;3.27;;;24.10;68.70;;;;;;5030397;28;20597;-70
2022/05/09 13:11:30;;;;;;;4.63;4.00;;;24.10;69.40;;;;;;5048724;28;20484;-70
2022/05/09 13:14:23;;;;;;;5.87;4.33;;;24.10;69.20;;;;;;5049532;28;20456;-71
2022/05/09 13:16:59;;;;;;;4.37;3.97;;;24.00;68.20;;;;;;5041762;28;20472;-73
2022/05/09 13:19:25;;;;;;;4.20;3.90;;;23.80;69.00;;;;;;5049938;28;20403;-69
2022/05/09 13:21:51;;;;;;;4.13;3.80;;;23.80;69.00;;;;;;5032608;28;20395;-70
2022/05/09 13:24:29;;;;;;;3.57;3.30;;;23.90;69.40;;;;;;5045410;28;20542;-72
2022/05/09 13:26:59;;;;;;;4.30;4.00;;;24.10;70.30;;;;;;5030174;28;20410;-70
2022/05/09 13:29:29;;;;;;;4.07;3.77;;;24.30;69.80;;;;;;5029567;28;20578;-71
2022/05/09 13:31:56;;;;;;;4.30;4.00;;;24.40;69.80;;;;;;5029779;28;20409;-71
2022/05/09 13:34:32;;;;;;;4.03;3.63;;;24.50;70.60;;;;;;5029345;28;20396;-72
2022/05/09 13:37:01;;;;;;;4.00;3.70;;;24.60;70.80;;;;;;5029730;28;20447;-70
2022/05/09 13:39:35;;;;;;;4.50;4.13;;;24.60;69.80;;;;;;5036722;28;20421;-71
2022/05/09 13:42:26;;;;;;;3.77;3.47;;;24.80;70.10;;;;;;5049344;28;20562;-71
2022/05/09 13:44:55;;;;;;;3.87;3.57;;;24.80;68.30;;;;;;5048992;28;20575;-71
2022/05/09 13:47:24;;;;;;;4.37;4.07;;;24.90;67.70;;;;;;5049412;28;20521;-70
2022/05/09 13:49:55;;;;;;;3.90;3.60;;;25.00;67.60;;;;;;5049389;28;20546;-69
2022/05/09 13:52:30;;;;;;;4.00;3.73;;;24.90;68.60;;;;;;5049151;28;20489;-69
2022/05/09 13:54:59;;;;;;;3.70;3.40;;;24.80;66.60;;;;;;5035216;28;20748;-68
2022/05/09 13:57:26;;;;;;;4.37;3.97;;;24.70;68.10;;;;;;5029505;28;20394;-71
2022/05/09 13:59:55;;;;;;;4.70;3.40;;;24.70;68.60;;;;;;5011807;28;20517;-70
2022/05/09 14:02:24;;;;;;;5.73;4.10;;;24.70;68.10;;;;;;5028486;28;20414;-70
2022/05/09 14:05:02;;;;;;;3.37;3.17;;;24.60;67.50;;;;;;5029110;28;20450;-67
2022/05/09 14:07:38;;;;;;;3.53;3.30;;;24.60;69.10;;;;;;5029328;28;20665;-71
2022/05/09 14:10:21;;;;;;;4.57;4.30;;;24.70;67.60;;;;;;5045847;28;20429;-68
2022/05/09 14:12:47;;;;;;;3.97;3.60;;;24.60;67.10;;;;;;5048726;28;20424;-72
2022/05/09 14:15:18;;;;;;;3.70;3.50;;;24.60;68.00;;;;;;5049013;28;20453;-69
2022/05/09 14:18:14;;;;;;;4.43;4.10;;;24.60;68.20;;;;;;5048901;28;20402;-70
2022/05/09 14:20:42;;;;;;;3.97;3.70;;;24.70;68.10;;;;;;5048889;28;20392;-69
2022/05/09 14:23:19;;;;;;;4.27;3.97;;;24.70;67.90;;;;;;5044702;28;20441;-69
2022/05/09 14:31:53;;;;;;;3.63;3.43;;;24.60;66.80;;;;;;5048584;28;20470;-71
2022/05/09 14:34:21;;;;;;;4.20;3.90;;;24.50;66.70;;;;;;5047932;28;20557;-70
2022/05/09 14:36:48;;;;;;;3.50;3.30;;;24.60;67.20;;;;;;5030890;28;20481;-69
2022/05/09 14:39:24;;;;;;;4.00;3.70;;;24.70;66.90;;;;;;5048031;28;20641;-71
2022/05/09 14:41:50;;;;;;;4.00;3.60;;;24.80;65.50;;;;;;5048539;28;20407;-67
2022/05/09 14:44:28;;;;;;;4.20;3.90;;;24.60;66.80;;;;;;5048018;28;20488;-69
2022/05/09 14:46:57;;;;;;;4.10;3.80;;;24.40;66.60;;;;;;5031103;28;20257;-71
2022/05/09 14:49:25;;;;;;;4.10;3.17;;;24.40;67.50;;;;;;5048331;28;20616;-70
2022/05/09 14:52:05;;;;;;;4.80;4.40;;;24.40;67.50;;;;;;5048245;28;20483;-70
2022/05/09 14:54:41;;;;;;;3.90;3.60;;;24.50;68.20;;;;;;5029185;28;20515;-69
2022/05/09 14:57:26;;;;;;;4.70;4.40;;;24.60;67.70;;;;;;5028495;28;20402;-70
2022/05/09 15:00:02;;;;;;;4.47;4.17;;;24.60;67.70;;;;;;5028435;28;20414;-71
2022/05/09 15:02:30;;;;;;;3.97;3.67;;;24.80;68.00;;;;;;5024297;28;20624;-70
2022/05/09 15:04:59;;;;;;;4.43;4.03;;;24.80;67.70;;;;;;5041780;28;20558;-69
2022/05/09 15:07:25;;;;;;;3.40;3.20;;;24.80;66.80;;;;;;5048121;28;20378;-67
2022/05/09 15:09:51;;;;;;;3.57;3.37;;;24.90;66.30;;;;;;5048127;28;20513;-68
2022/05/09 15:12:28;;;;;;;3.70;3.37;;;24.90;65.00;;;;;;5047515;28;20174;-70
2022/05/09 15:14:54;;;;;;;3.60;3.30;;;24.80;64.20;;;;;;5030461;28;20529;-68
2022/05/09 15:17:20;;;;;;;4.27;3.97;;;24.60;65.30;;;;;;5031147;28;20431;-71
2022/05/09 15:19:46;;;;;;;3.77;3.33;;;24.40;65.90;;;;;;5028044;28;20565;-69
2022/05/09 15:22:14;;;;;;;3.10;2.90;;;24.30;66.60;;;;;;5027595;28;20400;-69
2022/05/09 15:24:40;;;;;;;3.77;3.40;;;24.20;66.80;;;;;;5027728;28;20189;-68
2022/05/09 15:27:07;;;;;;;3.30;3.10;;;24.10;66.30;;;;;;5010813;28;20693;-71
2022/05/09 15:29:32;;;;;;;3.90;3.00;;;24.00;67.00;;;;;;5028002;28;20437;-72
2022/05/09 15:31:58;;;;;;;4.30;3.90;;;23.90;68.20;;;;;;5028946;28;20507;-72
2022/05/09 15:34:24;;;;;;;3.53;3.23;;;23.80;68.40;;;;;;5027376;28;20179;-69
2022/05/09 15:36:49;;;;;;;3.90;3.60;;;23.80;67.90;;;;;;5027761;28;20194;-70
2022/05/09 15:39:15;;;;;;;3.77;3.47;;;23.80;67.50;;;;;;5029752;28;20297;-71
2022/05/09 15:41:42;;;;;;;4.30;3.90;;;23.70;67.50;;;;;;5027219;28;20178;-71
2022/05/09 15:44:13;;;;;;;5.00;4.60;;;23.80;67.50;;;;;;5040980;28;20254;-71
2022/05/09 15:46:40;;;;;;;4.47;4.10;;;23.80;66.90;;;;;;5047603;28;20398;-71
2022/05/09 15:49:15;;;;;;;4.47;4.17;;;23.80;68.10;;;;;;5046921;28;20478;-71
2022/05/09 15:51:40;;;;;;;4.40;4.00;;;23.80;68.60;;;;;;5046986;28;20429;-70
2022/05/09 15:54:07;;;;;;;4.00;3.70;;;23.80;68.90;;;;;;5046775;28;20395;-70
2022/05/09 15:56:36;;;;;;;6.00;3.80;;;23.80;68.80;;;;;;5046925;28;20315;-71
2022/05/09 15:59:03;;;;;;;3.60;3.33;;;23.80;69.00;;;;;;5034483;28;20464;-69
2022/05/09 16:01:33;;;;;;;3.80;3.50;;;23.80;68.30;;;;;;5027106;28;20386;-69
2022/05/09 16:04:00;;;;;;;3.80;3.50;;;23.90;68.60;;;;;;5026642;28;20413;-71
2022/05/09 16:12:07;;;;;;;3.63;3.33;;;23.80;67.50;;;;;;5047189;28;20400;-70
2022/05/09 16:15:01;;;;;;;3.97;3.67;;;23.80;67.80;;;;;;5046600;28;20720;-69
2022/05/09 16:17:27;;;;;;;3.53;3.33;;;23.70;67.20;;;;;;5042605;28;20486;-68
2022/05/09 16:19:58;;;;;;;4.73;3.37;;;23.70;65.80;;;;;;5046849;28;20483;-71
2022/05/09 16:22:25;;;;;;;3.40;3.20;;;23.70;67.00;;;;;;5046430;28;20404;-71
2022/05/09 16:24:51;;;;;;;3.67;3.20;;;23.60;66.80;;;;;;5028124;28;20435;-72
2022/05/09 16:27:40;;;;;;;3.70;3.40;;;23.60;68.20;;;;;;5026683;28;20430;-69
2022/05/09 16:30:16;;;;;;;4.20;3.90;;;23.70;68.60;;;;;;5026754;28;20179;-71
2022/05/09 16:32:43;;;;;;;5.67;3.97;;;23.60;67.70;;;;;;5026562;28;20372;-69
2022/05/09 16:35:11;;;;;;;3.40;3.17;;;23.60;68.10;;;;;;5041678;28;20483;-70
2022/05/09 16:37:36;;;;;;;4.50;4.10;;;23.50;67.80;;;;;;5032916;28;20500;-70
2022/05/09 16:40:02;;;;;;;4.10;3.70;;;23.50;68.10;;;;;;5009456;28;20422;-68
2022/05/09 16:42:32;;;;;;;4.43;3.77;;;23.50;68.10;;;;;;5026410;28;20173;-68
2022/05/09 16:45:06;;;;;;;4.80;3.43;;;23.40;68.50;;;;;;5026541;28;20553;-68
2022/05/09 16:47:35;;;;;;;4.33;4.00;;;23.40;68.90;;;;;;5026572;28;20395;-70
2022/05/09 16:50:01;;;;;;;4.30;4.00;;;23.40;68.60;;;;;;5043070;28;20411;-69
2022/05/09 16:52:26;;;;;;;3.90;3.60;;;23.40;68.20;;;;;;5046134;28;20414;-69
2022/05/09 16:54:52;;;;;;;4.40;4.00;;;23.30;69.10;;;;;;5046266;28;20215;-68
2022/05/09 16:57:19;;;;;;;4.10;3.73;;;23.40;69.80;;;;;;5027995;28;20165;-69
2022/05/09 16:59:45;;;;;;;4.93;4.37;;;23.30;70.10;;;;;;5036101;28;20184;-72
2022/05/09 17:02:16;;;;;;;4.10;3.73;;;23.30;70.30;;;;;;5026161;28;20439;-68
2022/05/09 17:04:42;;;;;;;4.43;4.13;;;23.20;70.70;;;;;;5009124;28;20704;-69
2022/05/09 17:07:08;;;;;;;4.57;3.83;;;23.30;71.00;;;;;;5026686;28;20397;-72
2022/05/09 17:09:34;;;;;;;6.13;3.70;;;23.20;70.30;;;;;;5026411;28;20177;-70
2022/05/09 17:12:01;;;;;;;4.17;3.83;;;23.20;70.90;;;;;;5026680;28;20410;-69
2022/05/09 17:14:29;;;;;;;4.13;3.73;;;23.20;70.70;;;;;;5026095;28;20558;-71
2022/05/09 17:16:55;;;;;;;4.67;4.33;;;23.10;70.70;;;;;;5026270;28;20457;-67
2022/05/09 17:19:20;;;;;;;4.67;4.27;;;23.10;70.00;;;;;;5029929;28;20605;-67
2022/05/09 17:21:46;;;;;;;4.17;3.87;;;23.10;70.00;;;;;;5026612;28;20189;-67
2022/05/09 17:24:12;;;;;;;4.43;4.13;;;23.10;70.40;;;;;;5025943;28;20206;-69
2022/05/09 17:26:37;;;;;;;4.40;4.00;;;23.10;70.80;;;;;;5026445;28;20163;-68
2022/05/09 17:29:07;;;;;;;4.27;3.70;;;23.00;71.20;;;;;;5026561;28;20165;-69
2022/05/09 17:31:33;;;;;;;4.10;3.80;;;23.00;71.70;;;;;;5026068;28;20191;-66